sensor_id;sensor_type;location;lat;lon;timestamp;temperature;humidity
15879;DHT22;61999;51.514;14.614;2022-10-16T00:01:28;10.30;71.70
15879;DHT22;61999;51.514;14.614;2022-10-16T00:03:59;10.30;71.60
15879;DHT22;61999;51.514;14.614;2022-10-16T00:06:29;10.30;71.60
15879;DHT22;61999;51.514;14.614;2022-10-16T00:08:58;10.20;72.30
15879;DHT22;61999;51.514;14.614;2022-10-16T00:11:27;10.30;71.80
15879;DHT22;61999;51.514;14.614;2022-10-16T00:13:58;10.60;71.40
15879;DHT22;61999;51.514;14.614;2022-10-16T00:16:30;10.40;71.30
15879;DHT22;61999;51.514;14.614;2022-10-16T00:18:58;10.30;71.20
15879;DHT22;61999;51.514;14.614;2022-10-16T00:21:28;10.30;71.60
15879;DHT22;61999;51.514;14.614;2022-10-16T00:23:59;10.50;71.80
15879;DHT22;61999;51.514;14.614;2022-10-16T00:26:29;10.60;71.40
15879;DHT22;61999;51.514;14.614;2022-10-16T00:28:59;10.60;71.10
15879;DHT22;61999;51.514;14.614;2022-10-16T00:31:28;10.50;71.10
15879;DHT22;61999;51.514;14.614;2022-10-16T00:33:57;10.50;71.10
15879;DHT22;61999;51.514;14.614;2022-10-16T00:36:25;10.50;71.50
15879;DHT22;61999;51.514;14.614;2022-10-16T00:38:55;10.50;71.40
15879;DHT22;61999;51.514;14.614;2022-10-16T00:41:31;10.50;71.60
15879;DHT22;61999;51.514;14.614;2022-10-16T00:44:00;10.50;71.50
15879;DHT22;61999;51.514;14.614;2022-10-16T00:46:35;10.50;71.80
15879;DHT22;61999;51.514;14.614;2022-10-16T00:49:09;10.60;71.40
15879;DHT22;61999;51.514;14.614;2022-10-16T00:51:40;10.60;71.20
15879;DHT22;61999;51.514;14.614;2022-10-16T00:54:11;10.50;71.20
15879;DHT22;61999;51.514;14.614;2022-10-16T00:56:43;10.60;71.60
15879;DHT22;61999;51.514;14.614;2022-10-16T00:59:16;10.70;71.00
15879;DHT22;61999;51.514;14.614;2022-10-16T01:01:48;10.70;71.10
15879;DHT22;61999;51.514;14.614;2022-10-16T01:04:16;10.60;71.00
15879;DHT22;61999;51.514;14.614;2022-10-16T01:06:51;10.60;71.00
15879;DHT22;61999;51.514;14.614;2022-10-16T01:09:31;10.60;71.40
15879;DHT22;61999;51.514;14.614;2022-10-16T01:12:10;10.70;71.20
15879;DHT22;61999;51.514;14.614;2022-10-16T01:14:47;10.70;71.00
15879;DHT22;61999;51.514;14.614;2022-10-16T01:17:26;10.80;71.00
15879;DHT22;61999;51.514;14.614;2022-10-16T01:20:05;10.90;70.60
15879;DHT22;61999;51.514;14.614;2022-10-16T01:22:48;10.90;70.40
15879;DHT22;61999;51.514;14.614;2022-10-16T01:25:32;10.80;70.30
15879;DHT22;61999;51.514;14.614;2022-10-16T01:28:14;10.70;70.60
15879;DHT22;61999;51.514;14.614;2022-10-16T01:30:45;10.70;70.30
15879;DHT22;61999;51.514;14.614;2022-10-16T01:33:17;10.60;70.30
15879;DHT22;61999;51.514;14.614;2022-10-16T01:35:53;10.60;70.40
15879;DHT22;61999;51.514;14.614;2022-10-16T01:38:30;10.50;70.70
15879;DHT22;61999;51.514;14.614;2022-10-16T01:41:06;10.60;70.90
15879;DHT22;61999;51.514;14.614;2022-10-16T01:43:43;10.60;70.50
15879;DHT22;61999;51.514;14.614;2022-10-16T01:46:18;10.60;70.60
15879;DHT22;61999;51.514;14.614;2022-10-16T01:48:48;10.60;70.60
15879;DHT22;61999;51.514;14.614;2022-10-16T01:51:19;10.70;70.60
15879;DHT22;61999;51.514;14.614;2022-10-16T01:53:53;10.70;70.20
15879;DHT22;61999;51.514;14.614;2022-10-16T01:56:24;10.40;70.20
15879;DHT22;61999;51.514;14.614;2022-10-16T01:58:58;10.30;70.90
15879;DHT22;61999;51.514;14.614;2022-10-16T02:01:31;10.20;70.90
15879;DHT22;61999;51.514;14.614;2022-10-16T02:04:15;10.10;71.40
15879;DHT22;61999;51.514;14.614;2022-10-16T02:06:48;10.10;71.60
15879;DHT22;61999;51.514;14.614;2022-10-16T02:09:16;10.10;71.40
15879;DHT22;61999;51.514;14.614;2022-10-16T02:11:44;10.10;71.70
15879;DHT22;61999;51.514;14.614;2022-10-16T02:14:14;10.00;71.60
15879;DHT22;61999;51.514;14.614;2022-10-16T02:16:44;10.10;71.70
15879;DHT22;61999;51.514;14.614;2022-10-16T02:19:14;10.10;71.80
15879;DHT22;61999;51.514;14.614;2022-10-16T02:21:45;10.00;71.90
15879;DHT22;61999;51.514;14.614;2022-10-16T02:24:23;10.10;72.20
15879;DHT22;61999;51.514;14.614;2022-10-16T02:27:05;10.00;71.90
15879;DHT22;61999;51.514;14.614;2022-10-16T02:29:40;10.10;72.50
15879;DHT22;61999;51.514;14.614;2022-10-16T02:32:17;10.20;72.40
15879;DHT22;61999;51.514;14.614;2022-10-16T02:34:49;10.10;72.30
15879;DHT22;61999;51.514;14.614;2022-10-16T02:37:20;10.10;72.40
15879;DHT22;61999;51.514;14.614;2022-10-16T02:39:48;10.20;72.30
15879;DHT22;61999;51.514;14.614;2022-10-16T02:42:18;10.20;72.40
15879;DHT22;61999;51.514;14.614;2022-10-16T02:44:47;10.30;72.40
15879;DHT22;61999;51.514;14.614;2022-10-16T02:47:15;10.30;72.00
15879;DHT22;61999;51.514;14.614;2022-10-16T02:49:43;10.20;71.90
15879;DHT22;61999;51.514;14.614;2022-10-16T02:52:11;10.10;72.10
15879;DHT22;61999;51.514;14.614;2022-10-16T02:54:39;10.10;72.40
15879;DHT22;61999;51.514;14.614;2022-10-16T02:57:07;10.10;72.60
15879;DHT22;61999;51.514;14.614;2022-10-16T02:59:35;10.20;72.40
15879;DHT22;61999;51.514;14.614;2022-10-16T03:02:04;10.30;72.30
15879;DHT22;61999;51.514;14.614;2022-10-16T03:04:32;10.30;72.20
15879;DHT22;61999;51.514;14.614;2022-10-16T03:07:00;10.30;72.00
15879;DHT22;61999;51.514;14.614;2022-10-16T03:09:28;10.40;72.10
15879;DHT22;61999;51.514;14.614;2022-10-16T03:11:56;10.40;72.00
15879;DHT22;61999;51.514;14.614;2022-10-16T03:14:24;10.50;71.80
15879;DHT22;61999;51.514;14.614;2022-10-16T03:16:57;10.50;71.90
15879;DHT22;61999;51.514;14.614;2022-10-16T03:19:26;10.40;71.50
15879;DHT22;61999;51.514;14.614;2022-10-16T03:21:54;10.40;71.90
15879;DHT22;61999;51.514;14.614;2022-10-16T03:24:22;10.40;72.00
15879;DHT22;61999;51.514;14.614;2022-10-16T03:26:50;10.50;71.90
15879;DHT22;61999;51.514;14.614;2022-10-16T03:29:19;10.40;71.60
15879;DHT22;61999;51.514;14.614;2022-10-16T03:31:47;10.40;72.20
15879;DHT22;61999;51.514;14.614;2022-10-16T03:34:16;10.40;71.80
15879;DHT22;61999;51.514;14.614;2022-10-16T03:36:45;10.40;71.90
15879;DHT22;61999;51.514;14.614;2022-10-16T03:39:13;10.40;72.00
15879;DHT22;61999;51.514;14.614;2022-10-16T03:41:43;10.40;71.90
15879;DHT22;61999;51.514;14.614;2022-10-16T03:44:13;10.40;72.00
15879;DHT22;61999;51.514;14.614;2022-10-16T03:46:41;10.50;71.60
15879;DHT22;61999;51.514;14.614;2022-10-16T03:49:08;10.50;71.40
15879;DHT22;61999;51.514;14.614;2022-10-16T03:51:36;10.30;71.70
15879;DHT22;61999;51.514;14.614;2022-10-16T03:54:06;10.30;71.90
15879;DHT22;61999;51.514;14.614;2022-10-16T03:56:34;10.30;71.80
15879;DHT22;61999;51.514;14.614;2022-10-16T03:59:02;10.20;72.00
15879;DHT22;61999;51.514;14.614;2022-10-16T04:01:30;10.20;72.40
15879;DHT22;61999;51.514;14.614;2022-10-16T04:03:58;10.30;72.30
15879;DHT22;61999;51.514;14.614;2022-10-16T04:06:26;10.40;72.20
15879;DHT22;61999;51.514;14.614;2022-10-16T04:08:54;10.40;72.00
15879;DHT22;61999;51.514;14.614;2022-10-16T04:11:24;10.40;71.90
15879;DHT22;61999;51.514;14.614;2022-10-16T04:13:51;10.50;71.70
15879;DHT22;61999;51.514;14.614;2022-10-16T04:16:19;10.70;71.10
15879;DHT22;61999;51.514;14.614;2022-10-16T04:18:47;10.60;71.20
15879;DHT22;61999;51.514;14.614;2022-10-16T04:21:15;10.60;71.50
15879;DHT22;61999;51.514;14.614;2022-10-16T04:23:43;10.60;71.40
15879;DHT22;61999;51.514;14.614;2022-10-16T04:26:11;10.50;71.50
15879;DHT22;61999;51.514;14.614;2022-10-16T04:28:40;10.50;71.50
15879;DHT22;61999;51.514;14.614;2022-10-16T04:31:08;10.60;71.40
15879;DHT22;61999;51.514;14.614;2022-10-16T04:33:36;10.50;71.40
15879;DHT22;61999;51.514;14.614;2022-10-16T04:36:04;10.40;71.50
15879;DHT22;61999;51.514;14.614;2022-10-16T04:38:36;10.40;71.70
15879;DHT22;61999;51.514;14.614;2022-10-16T04:41:06;10.40;71.80
15879;DHT22;61999;51.514;14.614;2022-10-16T04:43:36;10.40;71.40
15879;DHT22;61999;51.514;14.614;2022-10-16T04:46:08;10.40;71.70
15879;DHT22;61999;51.514;14.614;2022-10-16T04:48:37;10.40;71.60
15879;DHT22;61999;51.514;14.614;2022-10-16T04:51:05;10.50;71.70
15879;DHT22;61999;51.514;14.614;2022-10-16T04:53:33;10.70;71.20
15879;DHT22;61999;51.514;14.614;2022-10-16T04:56:01;10.60;71.20
15879;DHT22;61999;51.514;14.614;2022-10-16T04:58:29;10.50;71.30
15879;DHT22;61999;51.514;14.614;2022-10-16T05:01:00;10.60;71.40
15879;DHT22;61999;51.514;14.614;2022-10-16T05:03:39;10.50;71.30
15879;DHT22;61999;51.514;14.614;2022-10-16T05:06:07;10.50;71.60
15879;DHT22;61999;51.514;14.614;2022-10-16T05:08:35;10.50;71.50
15879;DHT22;61999;51.514;14.614;2022-10-16T05:11:03;10.50;71.60
15879;DHT22;61999;51.514;14.614;2022-10-16T05:13:31;10.40;71.80
15879;DHT22;61999;51.514;14.614;2022-10-16T05:15:59;10.40;71.50
15879;DHT22;61999;51.514;14.614;2022-10-16T05:18:27;10.30;71.40
15879;DHT22;61999;51.514;14.614;2022-10-16T05:20:56;10.30;71.50
15879;DHT22;61999;51.514;14.614;2022-10-16T05:23:24;10.20;71.30
15879;DHT22;61999;51.514;14.614;2022-10-16T05:25:53;10.20;71.60
15879;DHT22;61999;51.514;14.614;2022-10-16T05:28:22;10.30;71.70
15879;DHT22;61999;51.514;14.614;2022-10-16T05:30:51;10.30;71.70
15879;DHT22;61999;51.514;14.614;2022-10-16T05:33:25;10.30;71.80
15879;DHT22;61999;51.514;14.614;2022-10-16T05:36:00;10.30;71.80
15879;DHT22;61999;51.514;14.614;2022-10-16T05:38:29;10.20;71.80
15879;DHT22;61999;51.514;14.614;2022-10-16T05:40:57;10.20;71.90
15879;DHT22;61999;51.514;14.614;2022-10-16T05:43:26;10.20;72.00
15879;DHT22;61999;51.514;14.614;2022-10-16T05:45:56;10.20;72.20
15879;DHT22;61999;51.514;14.614;2022-10-16T05:48:24;10.20;72.10
15879;DHT22;61999;51.514;14.614;2022-10-16T05:50:58;10.20;72.20
15879;DHT22;61999;51.514;14.614;2022-10-16T05:53:27;10.30;72.40
15879;DHT22;61999;51.514;14.614;2022-10-16T05:55:56;10.30;72.20
15879;DHT22;61999;51.514;14.614;2022-10-16T05:58:25;10.30;72.30
15879;DHT22;61999;51.514;14.614;2022-10-16T06:00:57;10.30;72.20
15879;DHT22;61999;51.514;14.614;2022-10-16T06:03:26;10.30;72.40
15879;DHT22;61999;51.514;14.614;2022-10-16T06:05:55;10.40;72.60
15879;DHT22;61999;51.514;14.614;2022-10-16T06:08:24;10.40;72.40
15879;DHT22;61999;51.514;14.614;2022-10-16T06:11:00;10.40;72.50
15879;DHT22;61999;51.514;14.614;2022-10-16T06:13:29;10.40;72.50
15879;DHT22;61999;51.514;14.614;2022-10-16T06:15:58;10.40;72.60
15879;DHT22;61999;51.514;14.614;2022-10-16T06:18:28;10.50;72.60
15879;DHT22;61999;51.514;14.614;2022-10-16T06:20:57;10.60;72.40
15879;DHT22;61999;51.514;14.614;2022-10-16T06:23:28;10.70;72.40
15879;DHT22;61999;51.514;14.614;2022-10-16T06:26:04;10.70;72.50
15879;DHT22;61999;51.514;14.614;2022-10-16T06:28:33;10.80;72.10
15879;DHT22;61999;51.514;14.614;2022-10-16T06:31:02;10.90;71.80
15879;DHT22;61999;51.514;14.614;2022-10-16T06:33:32;10.90;72.50
15879;DHT22;61999;51.514;14.614;2022-10-16T06:36:01;10.90;71.70
15879;DHT22;61999;51.514;14.614;2022-10-16T06:38:31;10.90;71.90
15879;DHT22;61999;51.514;14.614;2022-10-16T06:41:00;11.00;72.00
15879;DHT22;61999;51.514;14.614;2022-10-16T06:43:29;11.00;71.80
15879;DHT22;61999;51.514;14.614;2022-10-16T06:46:00;11.00;72.00
15879;DHT22;61999;51.514;14.614;2022-10-16T06:48:29;11.10;72.30
15879;DHT22;61999;51.514;14.614;2022-10-16T06:50:58;11.10;72.80
15879;DHT22;61999;51.514;14.614;2022-10-16T06:53:28;11.10;72.50
15879;DHT22;61999;51.514;14.614;2022-10-16T06:56:08;11.20;72.80
15879;DHT22;61999;51.514;14.614;2022-10-16T06:58:37;11.30;72.80
15879;DHT22;61999;51.514;14.614;2022-10-16T07:01:06;11.60;72.40
15879;DHT22;61999;51.514;14.614;2022-10-16T07:03:37;11.80;69.80
15879;DHT22;61999;51.514;14.614;2022-10-16T07:06:07;11.80;70.10
15879;DHT22;61999;51.514;14.614;2022-10-16T07:08:37;11.70;70.20
15879;DHT22;61999;51.514;14.614;2022-10-16T07:11:09;11.90;69.10
15879;DHT22;61999;51.514;14.614;2022-10-16T07:13:40;11.90;68.80
15879;DHT22;61999;51.514;14.614;2022-10-16T07:16:11;11.90;69.00
15879;DHT22;61999;51.514;14.614;2022-10-16T07:18:41;12.00;69.30
15879;DHT22;61999;51.514;14.614;2022-10-16T07:21:13;12.00;70.00
15879;DHT22;61999;51.514;14.614;2022-10-16T07:23:43;12.00;70.50
15879;DHT22;61999;51.514;14.614;2022-10-16T07:26:12;12.10;69.80
15879;DHT22;61999;51.514;14.614;2022-10-16T07:28:42;12.30;70.00
15879;DHT22;61999;51.514;14.614;2022-10-16T07:31:12;12.50;70.00
15879;DHT22;61999;51.514;14.614;2022-10-16T07:33:42;12.80;68.60
15879;DHT22;61999;51.514;14.614;2022-10-16T07:36:12;13.10;66.90
15879;DHT22;61999;51.514;14.614;2022-10-16T07:38:42;13.20;67.60
15879;DHT22;61999;51.514;14.614;2022-10-16T07:41:13;13.50;66.30
15879;DHT22;61999;51.514;14.614;2022-10-16T07:43:45;13.70;65.50
15879;DHT22;61999;51.514;14.614;2022-10-16T07:46:15;13.70;66.40
15879;DHT22;61999;51.514;14.614;2022-10-16T07:48:44;14.00;64.00
15879;DHT22;61999;51.514;14.614;2022-10-16T07:51:16;14.10;63.40
15879;DHT22;61999;51.514;14.614;2022-10-16T07:54:02;14.00;63.70
15879;DHT22;61999;51.514;14.614;2022-10-16T07:56:39;14.00;62.70
15879;DHT22;61999;51.514;14.614;2022-10-16T07:59:08;13.90;63.40
15879;DHT22;61999;51.514;14.614;2022-10-16T08:01:36;13.90;62.90
15879;DHT22;61999;51.514;14.614;2022-10-16T08:04:05;13.80;62.80
15879;DHT22;61999;51.514;14.614;2022-10-16T08:06:35;13.80;63.10
15879;DHT22;61999;51.514;14.614;2022-10-16T08:09:06;13.80;63.20
15879;DHT22;61999;51.514;14.614;2022-10-16T08:11:34;13.80;63.40
15879;DHT22;61999;51.514;14.614;2022-10-16T08:14:03;13.90;62.00
15879;DHT22;61999;51.514;14.614;2022-10-16T08:16:32;13.90;62.00
15879;DHT22;61999;51.514;14.614;2022-10-16T08:18:59;13.80;62.20
15879;DHT22;61999;51.514;14.614;2022-10-16T08:21:27;13.90;62.20
15879;DHT22;61999;51.514;14.614;2022-10-16T08:23:55;13.80;62.10
15879;DHT22;61999;51.514;14.614;2022-10-16T08:26:24;14.00;61.50
15879;DHT22;61999;51.514;14.614;2022-10-16T08:28:53;13.80;62.20
15879;DHT22;61999;51.514;14.614;2022-10-16T08:31:23;13.80;62.10
15879;DHT22;61999;51.514;14.614;2022-10-16T08:33:52;13.60;62.50
15879;DHT22;61999;51.514;14.614;2022-10-16T08:36:20;13.70;62.40
15879;DHT22;61999;51.514;14.614;2022-10-16T08:38:49;13.50;63.40
15879;DHT22;61999;51.514;14.614;2022-10-16T08:41:46;13.80;62.40
15879;DHT22;61999;51.514;14.614;2022-10-16T08:47:49;14.00;62.30
15879;DHT22;61999;51.514;14.614;2022-10-16T08:50:24;14.10;62.40
15879;DHT22;61999;51.514;14.614;2022-10-16T08:52:55;14.30;61.70
15879;DHT22;61999;51.514;14.614;2022-10-16T08:55:31;14.50;62.50
15879;DHT22;61999;51.514;14.614;2022-10-16T08:58:11;14.80;62.20
15879;DHT22;61999;51.514;14.614;2022-10-16T09:00:42;15.30;58.90
15879;DHT22;61999;51.514;14.614;2022-10-16T09:03:21;15.30;58.50
15879;DHT22;61999;51.514;14.614;2022-10-16T09:06:10;15.40;58.40
15879;DHT22;61999;51.514;14.614;2022-10-16T09:12:01;15.70;58.00
15879;DHT22;61999;51.514;14.614;2022-10-16T09:14:52;15.70;57.70
15879;DHT22;61999;51.514;14.614;2022-10-16T09:17:38;15.80;57.20
15879;DHT22;61999;51.514;14.614;2022-10-16T09:20:20;15.80;56.80
15879;DHT22;61999;51.514;14.614;2022-10-16T09:23:08;15.70;57.10
15879;DHT22;61999;51.514;14.614;2022-10-16T09:25:44;15.70;57.20
15879;DHT22;61999;51.514;14.614;2022-10-16T09:28:16;15.70;56.70
15879;DHT22;61999;51.514;14.614;2022-10-16T09:30:45;15.70;56.40
15879;DHT22;61999;51.514;14.614;2022-10-16T09:33:16;15.60;56.70
15879;DHT22;61999;51.514;14.614;2022-10-16T09:35:49;15.40;57.60
15879;DHT22;61999;51.514;14.614;2022-10-16T09:38:24;15.50;57.60
15879;DHT22;61999;51.514;14.614;2022-10-16T09:40:55;15.50;57.30
15879;DHT22;61999;51.514;14.614;2022-10-16T09:43:33;15.70;56.80
15879;DHT22;61999;51.514;14.614;2022-10-16T09:46:05;15.60;57.10
15879;DHT22;61999;51.514;14.614;2022-10-16T09:48:37;15.70;57.10
15879;DHT22;61999;51.514;14.614;2022-10-16T09:51:18;16.10;56.90
15879;DHT22;61999;51.514;14.614;2022-10-16T09:53:54;16.20;56.90
15879;DHT22;61999;51.514;14.614;2022-10-16T09:56:25;16.30;55.60
15879;DHT22;61999;51.514;14.614;2022-10-16T09:58:56;16.40;54.90
15879;DHT22;61999;51.514;14.614;2022-10-16T10:01:30;16.30;55.30
15879;DHT22;61999;51.514;14.614;2022-10-16T10:04:03;16.10;55.50
15879;DHT22;61999;51.514;14.614;2022-10-16T10:06:35;15.90;56.40
15879;DHT22;61999;51.514;14.614;2022-10-16T10:09:13;15.70;57.60
15879;DHT22;61999;51.514;14.614;2022-10-16T10:11:48;15.90;56.90
15879;DHT22;61999;51.514;14.614;2022-10-16T10:14:24;16.00;56.40
15879;DHT22;61999;51.514;14.614;2022-10-16T10:17:12;16.20;56.50
15879;DHT22;61999;51.514;14.614;2022-10-16T10:19:46;16.50;55.80
15879;DHT22;61999;51.514;14.614;2022-10-16T10:22:29;16.60;57.20
15879;DHT22;61999;51.514;14.614;2022-10-16T10:25:27;17.00;55.80
15879;DHT22;61999;51.514;14.614;2022-10-16T10:28:16;17.40;54.00
15879;DHT22;61999;51.514;14.614;2022-10-16T10:30:58;17.60;53.40
15879;DHT22;61999;51.514;14.614;2022-10-16T10:33:43;17.60;53.00
15879;DHT22;61999;51.514;14.614;2022-10-16T10:36:23;17.60;52.90
15879;DHT22;61999;51.514;14.614;2022-10-16T10:38:59;17.60;53.20
15879;DHT22;61999;51.514;14.614;2022-10-16T10:41:57;17.70;52.00
15879;DHT22;61999;51.514;14.614;2022-10-16T10:44:59;17.60;52.00
15879;DHT22;61999;51.514;14.614;2022-10-16T10:47:47;17.30;52.50
15879;DHT22;61999;51.514;14.614;2022-10-16T10:50:33;17.00;53.00
15879;DHT22;61999;51.514;14.614;2022-10-16T10:53:17;16.80;53.40
15879;DHT22;61999;51.514;14.614;2022-10-16T10:56:00;16.60;54.20
15879;DHT22;61999;51.514;14.614;2022-10-16T10:58:52;16.30;54.70
15879;DHT22;61999;51.514;14.614;2022-10-16T11:01:40;16.20;55.00
15879;DHT22;61999;51.514;14.614;2022-10-16T11:04:42;16.00;55.30
15879;DHT22;61999;51.514;14.614;2022-10-16T11:07:26;15.80;55.90
15879;DHT22;61999;51.514;14.614;2022-10-16T11:09:59;15.60;56.40
15879;DHT22;61999;51.514;14.614;2022-10-16T11:12:38;15.40;57.30
15879;DHT22;61999;51.514;14.614;2022-10-16T11:15:13;15.50;57.20
15879;DHT22;61999;51.514;14.614;2022-10-16T11:17:48;15.70;57.00
15879;DHT22;61999;51.514;14.614;2022-10-16T11:20:24;15.80;56.60
15879;DHT22;61999;51.514;14.614;2022-10-16T11:22:58;15.80;56.40
15879;DHT22;61999;51.514;14.614;2022-10-16T11:25:33;15.70;56.70
15879;DHT22;61999;51.514;14.614;2022-10-16T11:28:07;15.70;56.80
15879;DHT22;61999;51.514;14.614;2022-10-16T11:30:43;15.70;57.10
15879;DHT22;61999;51.514;14.614;2022-10-16T11:33:25;15.70;57.20
15879;DHT22;61999;51.514;14.614;2022-10-16T11:36:06;16.00;56.30
15879;DHT22;61999;51.514;14.614;2022-10-16T11:38:45;15.90;56.50
15879;DHT22;61999;51.514;14.614;2022-10-16T11:41:26;15.90;56.50
15879;DHT22;61999;51.514;14.614;2022-10-16T11:44:06;15.90;56.50
15879;DHT22;61999;51.514;14.614;2022-10-16T11:46:57;16.20;55.90
15879;DHT22;61999;51.514;14.614;2022-10-16T11:49:44;16.30;56.10
15879;DHT22;61999;51.514;14.614;2022-10-16T11:52:20;16.60;55.20
15879;DHT22;61999;51.514;14.614;2022-10-16T11:55:17;16.50;56.00
15879;DHT22;61999;51.514;14.614;2022-10-16T11:58:07;16.60;55.60
15879;DHT22;61999;51.514;14.614;2022-10-16T12:00:46;16.90;54.30
15879;DHT22;61999;51.514;14.614;2022-10-16T12:03:22;16.90;54.10
15879;DHT22;61999;51.514;14.614;2022-10-16T12:06:19;16.90;54.80
15879;DHT22;61999;51.514;14.614;2022-10-16T12:08:55;16.80;54.40
15879;DHT22;61999;51.514;14.614;2022-10-16T12:11:36;16.70;53.90
15879;DHT22;61999;51.514;14.614;2022-10-16T12:14:17;16.60;54.50
15879;DHT22;61999;51.514;14.614;2022-10-16T12:16:57;16.50;54.80
15879;DHT22;61999;51.514;14.614;2022-10-16T12:19:28;16.40;55.50
15879;DHT22;61999;51.514;14.614;2022-10-16T12:22:00;16.40;56.00
15879;DHT22;61999;51.514;14.614;2022-10-16T12:24:33;16.60;55.10
15879;DHT22;61999;51.514;14.614;2022-10-16T12:27:05;16.60;55.00
15879;DHT22;61999;51.514;14.614;2022-10-16T12:29:36;16.80;54.60
15879;DHT22;61999;51.514;14.614;2022-10-16T12:32:24;16.70;54.50
15879;DHT22;61999;51.514;14.614;2022-10-16T12:35:19;16.80;54.10
15879;DHT22;61999;51.514;14.614;2022-10-16T12:37:50;16.70;54.30
15879;DHT22;61999;51.514;14.614;2022-10-16T12:40:28;16.60;54.50
15879;DHT22;61999;51.514;14.614;2022-10-16T12:42:58;16.40;55.00
15879;DHT22;61999;51.514;14.614;2022-10-16T12:45:29;16.30;55.20
15879;DHT22;61999;51.514;14.614;2022-10-16T12:48:04;16.30;55.10
15879;DHT22;61999;51.514;14.614;2022-10-16T12:50:47;16.30;55.90
15879;DHT22;61999;51.514;14.614;2022-10-16T12:53:19;16.40;56.00
15879;DHT22;61999;51.514;14.614;2022-10-16T12:55:59;16.60;56.20
15879;DHT22;61999;51.514;14.614;2022-10-16T12:58:50;16.80;55.60
15879;DHT22;61999;51.514;14.614;2022-10-16T13:01:53;17.10;54.50
15879;DHT22;61999;51.514;14.614;2022-10-16T13:05:02;17.20;54.20
15879;DHT22;61999;51.514;14.614;2022-10-16T13:07:48;17.30;53.60
15879;DHT22;61999;51.514;14.614;2022-10-16T13:10:34;17.40;53.30
15879;DHT22;61999;51.514;14.614;2022-10-16T13:13:22;17.30;53.40
15879;DHT22;61999;51.514;14.614;2022-10-16T13:16:12;17.00;54.00
15879;DHT22;61999;51.514;14.614;2022-10-16T13:18:57;17.10;53.90
15879;DHT22;61999;51.514;14.614;2022-10-16T13:21:46;16.80;54.20
15879;DHT22;61999;51.514;14.614;2022-10-16T13:24:36;16.70;54.50
15879;DHT22;61999;51.514;14.614;2022-10-16T13:27:19;16.40;55.40
15879;DHT22;61999;51.514;14.614;2022-10-16T13:30:01;16.50;54.90
15879;DHT22;61999;51.514;14.614;2022-10-16T13:32:36;16.40;55.10
15879;DHT22;61999;51.514;14.614;2022-10-16T13:35:19;16.40;55.40
15879;DHT22;61999;51.514;14.614;2022-10-16T13:37:51;16.30;55.70
15879;DHT22;61999;51.514;14.614;2022-10-16T13:40:21;16.30;55.80
15879;DHT22;61999;51.514;14.614;2022-10-16T13:42:51;16.40;55.50
15879;DHT22;61999;51.514;14.614;2022-10-16T13:45:24;16.30;55.60
15879;DHT22;61999;51.514;14.614;2022-10-16T13:48:02;16.20;55.70
15879;DHT22;61999;51.514;14.614;2022-10-16T13:50:39;16.40;55.40
15879;DHT22;61999;51.514;14.614;2022-10-16T13:53:13;16.50;55.40
15879;DHT22;61999;51.514;14.614;2022-10-16T13:55:41;16.30;55.60
15879;DHT22;61999;51.514;14.614;2022-10-16T13:58:12;16.30;56.10
15879;DHT22;61999;51.514;14.614;2022-10-16T14:00:53;16.40;55.60
15879;DHT22;61999;51.514;14.614;2022-10-16T14:03:24;16.30;56.00
15879;DHT22;61999;51.514;14.614;2022-10-16T14:05:55;16.30;56.40
15879;DHT22;61999;51.514;14.614;2022-10-16T14:08:28;16.40;56.20
15879;DHT22;61999;51.514;14.614;2022-10-16T14:10:59;16.50;56.20
15879;DHT22;61999;51.514;14.614;2022-10-16T14:13:34;16.70;55.80
15879;DHT22;61999;51.514;14.614;2022-10-16T14:16:07;16.70;56.10
15879;DHT22;61999;51.514;14.614;2022-10-16T14:18:38;16.90;55.40
15879;DHT22;61999;51.514;14.614;2022-10-16T14:21:12;17.10;55.00
15879;DHT22;61999;51.514;14.614;2022-10-16T14:23:43;17.20;54.20
15879;DHT22;61999;51.514;14.614;2022-10-16T14:26:16;17.20;54.40
15879;DHT22;61999;51.514;14.614;2022-10-16T14:28:47;17.20;54.30
15879;DHT22;61999;51.514;14.614;2022-10-16T14:31:28;17.20;54.60
15879;DHT22;61999;51.514;14.614;2022-10-16T14:33:58;17.20;54.30
15879;DHT22;61999;51.514;14.614;2022-10-16T14:36:27;17.30;53.90
15879;DHT22;61999;51.514;14.614;2022-10-16T14:39:04;17.20;53.80
15879;DHT22;61999;51.514;14.614;2022-10-16T14:41:43;17.00;54.30
15879;DHT22;61999;51.514;14.614;2022-10-16T14:44:16;16.80;54.70
15879;DHT22;61999;51.514;14.614;2022-10-16T14:46:46;16.70;55.10
15879;DHT22;61999;51.514;14.614;2022-10-16T14:49:17;16.70;55.60
15879;DHT22;61999;51.514;14.614;2022-10-16T14:51:47;16.70;56.50
15879;DHT22;61999;51.514;14.614;2022-10-16T14:54:18;16.80;57.30
15879;DHT22;61999;51.514;14.614;2022-10-16T14:56:49;17.10;58.10
15879;DHT22;61999;51.514;14.614;2022-10-16T14:59:24;17.40;58.60
15879;DHT22;61999;51.514;14.614;2022-10-16T15:01:55;17.80;58.50
15879;DHT22;61999;51.514;14.614;2022-10-16T15:04:23;18.20;57.70
15879;DHT22;61999;51.514;14.614;2022-10-16T15:06:51;18.40;57.00
15879;DHT22;61999;51.514;14.614;2022-10-16T15:09:20;18.60;56.00
15879;DHT22;61999;51.514;14.614;2022-10-16T15:11:48;18.70;55.00
15879;DHT22;61999;51.514;14.614;2022-10-16T15:14:16;18.60;54.40
15879;DHT22;61999;51.514;14.614;2022-10-16T15:16:44;18.50;53.70
15879;DHT22;61999;51.514;14.614;2022-10-16T15:19:12;18.40;53.80
15879;DHT22;61999;51.514;14.614;2022-10-16T15:21:40;18.30;53.50
15879;DHT22;61999;51.514;14.614;2022-10-16T15:24:12;18.10;53.70
15879;DHT22;61999;51.514;14.614;2022-10-16T15:26:42;18.00;53.90
15879;DHT22;61999;51.514;14.614;2022-10-16T15:29:10;17.80;53.90
15879;DHT22;61999;51.514;14.614;2022-10-16T15:31:37;17.70;53.90
15879;DHT22;61999;51.514;14.614;2022-10-16T15:34:09;17.60;54.10
15879;DHT22;61999;51.514;14.614;2022-10-16T15:36:38;17.40;54.10
15879;DHT22;61999;51.514;14.614;2022-10-16T15:39:12;17.30;54.30
15879;DHT22;61999;51.514;14.614;2022-10-16T15:41:44;17.10;54.50
15879;DHT22;61999;51.514;14.614;2022-10-16T15:44:17;17.00;54.50
15879;DHT22;61999;51.514;14.614;2022-10-16T15:46:45;16.80;54.50
15879;DHT22;61999;51.514;14.614;2022-10-16T15:49:13;16.60;54.50
15879;DHT22;61999;51.514;14.614;2022-10-16T15:51:41;16.50;55.50
15879;DHT22;61999;51.514;14.614;2022-10-16T15:54:09;16.40;55.40
15879;DHT22;61999;51.514;14.614;2022-10-16T15:56:37;16.20;56.00
15879;DHT22;61999;51.514;14.614;2022-10-16T15:59:07;16.00;56.10
15879;DHT22;61999;51.514;14.614;2022-10-16T16:01:35;15.90;55.60